sensor_id;sensor_type;location;lat;lon;timestamp;P1;durP1;ratioP1;P2;durP2;ratioP2
49758;SDS011;70329;45.524;10.194;2023-11-21T00:04:28;47.92;;;24.42;;
49758;SDS011;70329;45.524;10.194;2023-11-21T00:06:55;45.30;;;23.83;;
49758;SDS011;70329;45.524;10.194;2023-11-21T00:09:22;48.60;;;24.20;;
49758;SDS011;70329;45.524;10.194;2023-11-21T00:11:51;46.35;;;23.95;;
49758;SDS011;70329;45.524;10.194;2023-11-21T00:14:18;55.80;;;26.30;;
49758;SDS011;70329;45.524;10.194;2023-11-21T00:16:44;48.28;;;24.90;;
49758;SDS011;70329;45.524;10.194;2023-11-21T00:21:43;49.83;;;24.30;;
49758;SDS011;70329;45.524;10.194;2023-11-21T00:24:11;46.67;;;24.35;;
49758;SDS011;70329;45.524;10.194;2023-11-21T00:26:40;49.88;;;24.45;;
49758;SDS011;70329;45.524;10.194;2023-11-21T00:29:06;45.97;;;23.70;;
49758;SDS011;70329;45.524;10.194;2023-11-21T00:31:34;50.20;;;23.33;;
49758;SDS011;70329;45.524;10.194;2023-11-21T00:34:05;46.25;;;24.35;;
49758;SDS011;70329;45.524;10.194;2023-11-21T00:36:31;52.65;;;25.58;;
49758;SDS011;70329;45.524;10.194;2023-11-21T00:38:59;56.75;;;27.58;;
49758;SDS011;70329;45.524;10.194;2023-11-21T00:41:26;54.47;;;26.92;;
49758;SDS011;70329;45.524;10.194;2023-11-21T00:43:54;51.75;;;24.67;;
49758;SDS011;70329;45.524;10.194;2023-11-21T00:46:21;50.67;;;24.80;;
49758;SDS011;70329;45.524;10.194;2023-11-21T00:48:48;46.67;;;24.73;;
49758;SDS011;70329;45.524;10.194;2023-11-21T00:53:41;45.70;;;23.17;;
49758;SDS011;70329;45.524;10.194;2023-11-21T00:58:35;47.33;;;24.15;;
49758;SDS011;70329;45.524;10.194;2023-11-21T01:01:00;44.50;;;22.47;;
49758;SDS011;70329;45.524;10.194;2023-11-21T01:03:27;52.33;;;24.77;;
49758;SDS011;70329;45.524;10.194;2023-11-21T01:05:54;51.30;;;25.67;;
49758;SDS011;70329;45.524;10.194;2023-11-21T01:10:46;47.80;;;25.73;;
49758;SDS011;70329;45.524;10.194;2023-11-21T01:13:13;53.30;;;26.37;;
49758;SDS011;70329;45.524;10.194;2023-11-21T01:15:41;50.83;;;25.48;;
49758;SDS011;70329;45.524;10.194;2023-11-21T01:18:08;51.67;;;25.42;;
49758;SDS011;70329;45.524;10.194;2023-11-21T01:20:35;57.60;;;27.33;;
49758;SDS011;70329;45.524;10.194;2023-11-21T01:23:02;49.50;;;25.60;;
49758;SDS011;70329;45.524;10.194;2023-11-21T01:25:28;54.47;;;27.70;;
49758;SDS011;70329;45.524;10.194;2023-11-21T01:27:55;53.97;;;26.60;;
49758;SDS011;70329;45.524;10.194;2023-11-21T01:30:27;54.03;;;26.27;;
49758;SDS011;70329;45.524;10.194;2023-11-21T01:32:54;51.58;;;26.23;;
49758;SDS011;70329;45.524;10.194;2023-11-21T01:35:21;56.50;;;27.08;;
49758;SDS011;70329;45.524;10.194;2023-11-21T01:37:47;48.58;;;25.75;;
49758;SDS011;70329;45.524;10.194;2023-11-21T01:40:14;50.13;;;26.55;;
49758;SDS011;70329;45.524;10.194;2023-11-21T01:45:09;54.25;;;26.63;;
49758;SDS011;70329;45.524;10.194;2023-11-21T01:47:37;50.63;;;27.02;;
49758;SDS011;70329;45.524;10.194;2023-11-21T01:50:06;64.57;;;28.52;;
49758;SDS011;70329;45.524;10.194;2023-11-21T01:52:34;49.30;;;27.65;;
49758;SDS011;70329;45.524;10.194;2023-11-21T01:55:02;54.60;;;28.13;;
49758;SDS011;70329;45.524;10.194;2023-11-21T01:57:31;52.83;;;27.55;;
49758;SDS011;70329;45.524;10.194;2023-11-21T02:02:25;51.65;;;26.83;;
49758;SDS011;70329;45.524;10.194;2023-11-21T02:04:53;54.05;;;28.40;;
49758;SDS011;70329;45.524;10.194;2023-11-21T02:07:19;56.20;;;27.30;;
49758;SDS011;70329;45.524;10.194;2023-11-21T02:12:13;52.55;;;28.23;;
49758;SDS011;70329;45.524;10.194;2023-11-21T02:14:39;52.40;;;26.70;;
49758;SDS011;70329;45.524;10.194;2023-11-21T02:17:06;60.13;;;28.50;;
49758;SDS011;70329;45.524;10.194;2023-11-21T02:19:34;50.63;;;28.10;;
49758;SDS011;70329;45.524;10.194;2023-11-21T02:22:02;52.08;;;28.10;;
49758;SDS011;70329;45.524;10.194;2023-11-21T02:24:34;54.30;;;28.33;;
49758;SDS011;70329;45.524;10.194;2023-11-21T02:27:00;51.00;;;27.13;;
49758;SDS011;70329;45.524;10.194;2023-11-21T02:31:53;53.42;;;27.50;;
49758;SDS011;70329;45.524;10.194;2023-11-21T02:34:20;57.92;;;26.58;;
49758;SDS011;70329;45.524;10.194;2023-11-21T02:36:47;54.28;;;28.30;;
49758;SDS011;70329;45.524;10.194;2023-11-21T02:39:16;56.67;;;28.52;;
49758;SDS011;70329;45.524;10.194;2023-11-21T02:41:43;56.20;;;28.63;;
49758;SDS011;70329;45.524;10.194;2023-11-21T02:44:10;57.63;;;28.40;;
49758;SDS011;70329;45.524;10.194;2023-11-21T02:46:37;58.88;;;28.25;;
49758;SDS011;70329;45.524;10.194;2023-11-21T02:49:05;62.47;;;31.60;;
49758;SDS011;70329;45.524;10.194;2023-11-21T02:51:32;56.38;;;29.30;;
49758;SDS011;70329;45.524;10.194;2023-11-21T02:53:59;58.88;;;29.13;;
49758;SDS011;70329;45.524;10.194;2023-11-21T02:56:29;58.28;;;28.73;;
49758;SDS011;70329;45.524;10.194;2023-11-21T02:58:57;55.10;;;28.25;;
49758;SDS011;70329;45.524;10.194;2023-11-21T03:01:26;59.70;;;28.95;;
49758;SDS011;70329;45.524;10.194;2023-11-21T03:03:52;57.47;;;28.27;;
49758;SDS011;70329;45.524;10.194;2023-11-21T03:06:19;62.77;;;31.67;;
49758;SDS011;70329;45.524;10.194;2023-11-21T03:08:46;61.63;;;29.98;;
49758;SDS011;70329;45.524;10.194;2023-11-21T03:11:13;61.28;;;29.67;;
49758;SDS011;70329;45.524;10.194;2023-11-21T03:13:41;58.08;;;29.17;;
49758;SDS011;70329;45.524;10.194;2023-11-21T03:16:10;54.90;;;28.02;;
49758;SDS011;70329;45.524;10.194;2023-11-21T03:18:37;56.30;;;28.75;;
49758;SDS011;70329;45.524;10.194;2023-11-21T03:21:05;65.93;;;29.85;;
49758;SDS011;70329;45.524;10.194;2023-11-21T03:23:34;62.17;;;29.98;;
49758;SDS011;70329;45.524;10.194;2023-11-21T03:26:02;64.57;;;31.70;;
49758;SDS011;70329;45.524;10.194;2023-11-21T03:28:28;57.25;;;29.58;;
49758;SDS011;70329;45.524;10.194;2023-11-21T03:30:56;54.95;;;30.17;;
49758;SDS011;70329;45.524;10.194;2023-11-21T03:35:50;55.00;;;28.55;;
49758;SDS011;70329;45.524;10.194;2023-11-21T03:38:19;51.70;;;30.02;;
49758;SDS011;70329;45.524;10.194;2023-11-21T03:40:46;54.97;;;28.63;;
49758;SDS011;70329;45.524;10.194;2023-11-21T03:43:13;63.25;;;30.40;;
49758;SDS011;70329;45.524;10.194;2023-11-21T03:45:40;57.42;;;30.85;;
49758;SDS011;70329;45.524;10.194;2023-11-21T03:48:07;56.20;;;30.25;;
49758;SDS011;70329;45.524;10.194;2023-11-21T03:50:36;57.70;;;29.33;;
49758;SDS011;70329;45.524;10.194;2023-11-21T03:53:03;57.15;;;30.13;;
49758;SDS011;70329;45.524;10.194;2023-11-21T03:57:56;52.65;;;29.65;;
49758;SDS011;70329;45.524;10.194;2023-11-21T04:00:24;58.50;;;30.92;;
49758;SDS011;70329;45.524;10.194;2023-11-21T04:02:50;55.30;;;30.48;;
49758;SDS011;70329;45.524;10.194;2023-11-21T04:05:16;60.45;;;30.65;;
49758;SDS011;70329;45.524;10.194;2023-11-21T04:07:45;63.13;;;30.63;;
49758;SDS011;70329;45.524;10.194;2023-11-21T04:10:12;60.78;;;30.27;;
49758;SDS011;70329;45.524;10.194;2023-11-21T04:12:38;63.15;;;31.48;;
49758;SDS011;70329;45.524;10.194;2023-11-21T04:15:04;58.73;;;31.37;;
49758;SDS011;70329;45.524;10.194;2023-11-21T04:17:31;60.80;;;31.65;;
49758;SDS011;70329;45.524;10.194;2023-11-21T04:19:58;59.47;;;31.00;;
49758;SDS011;70329;45.524;10.194;2023-11-21T04:22:25;60.50;;;30.30;;
49758;SDS011;70329;45.524;10.194;2023-11-21T04:24:53;68.07;;;33.00;;
49758;SDS011;70329;45.524;10.194;2023-11-21T04:27:22;81.50;;;37.25;;
49758;SDS011;70329;45.524;10.194;2023-11-21T04:29:49;62.67;;;32.72;;
49758;SDS011;70329;45.524;10.194;2023-11-21T04:34:42;58.35;;;29.52;;
49758;SDS011;70329;45.524;10.194;2023-11-21T04:37:09;61.10;;;30.48;;
49758;SDS011;70329;45.524;10.194;2023-11-21T04:39:37;174.15;;;75.43;;
49758;SDS011;70329;45.524;10.194;2023-11-21T04:42:05;98.85;;;45.85;;
49758;SDS011;70329;45.524;10.194;2023-11-21T04:44:32;73.50;;;34.90;;
49758;SDS011;70329;45.524;10.194;2023-11-21T04:46:59;101.80;;;46.83;;
49758;SDS011;70329;45.524;10.194;2023-11-21T04:49:26;76.45;;;36.50;;
49758;SDS011;70329;45.524;10.194;2023-11-21T04:51:53;61.35;;;29.38;;
49758;SDS011;70329;45.524;10.194;2023-11-21T04:56:45;53.42;;;27.73;;
49758;SDS011;70329;45.524;10.194;2023-11-21T04:59:13;49.70;;;25.77;;
49758;SDS011;70329;45.524;10.194;2023-11-21T05:01:40;53.80;;;27.00;;
49758;SDS011;70329;45.524;10.194;2023-11-21T05:04:07;50.40;;;25.80;;
49758;SDS011;70329;45.524;10.194;2023-11-21T05:06:34;48.13;;;24.30;;
49758;SDS011;70329;45.524;10.194;2023-11-21T05:11:28;48.90;;;23.60;;
49758;SDS011;70329;45.524;10.194;2023-11-21T05:13:58;43.08;;;21.17;;
49758;SDS011;70329;45.524;10.194;2023-11-21T05:16:29;41.85;;;19.90;;
49758;SDS011;70329;45.524;10.194;2023-11-21T05:18:56;42.75;;;19.77;;
49758;SDS011;70329;45.524;10.194;2023-11-21T05:21:27;40.22;;;19.48;;
49758;SDS011;70329;45.524;10.194;2023-11-21T05:23:56;43.78;;;20.08;;
49758;SDS011;70329;45.524;10.194;2023-11-21T05:26:22;44.15;;;20.77;;
49758;SDS011;70329;45.524;10.194;2023-11-21T05:28:49;39.08;;;19.33;;
49758;SDS011;70329;45.524;10.194;2023-11-21T05:31:15;37.20;;;19.08;;
49758;SDS011;70329;45.524;10.194;2023-11-21T05:33:43;38.23;;;18.93;;
49758;SDS011;70329;45.524;10.194;2023-11-21T05:36:11;43.25;;;19.88;;
49758;SDS011;70329;45.524;10.194;2023-11-21T05:38:37;41.17;;;19.38;;
49758;SDS011;70329;45.524;10.194;2023-11-21T05:41:02;46.27;;;19.70;;
49758;SDS011;70329;45.524;10.194;2023-11-21T05:43:33;36.17;;;18.42;;
49758;SDS011;70329;45.524;10.194;2023-11-21T05:46:01;44.88;;;18.58;;
49758;SDS011;70329;45.524;10.194;2023-11-21T05:50:56;40.97;;;19.40;;
49758;SDS011;70329;45.524;10.194;2023-11-21T05:53:23;44.65;;;19.20;;
49758;SDS011;70329;45.524;10.194;2023-11-21T05:55:50;40.00;;;18.98;;
49758;SDS011;70329;45.524;10.194;2023-11-21T05:58:17;40.45;;;18.95;;
49758;SDS011;70329;45.524;10.194;2023-11-21T06:03:11;39.10;;;18.38;;
49758;SDS011;70329;45.524;10.194;2023-11-21T06:05:38;46.20;;;18.98;;
49758;SDS011;70329;45.524;10.194;2023-11-21T06:08:07;36.97;;;17.98;;
49758;SDS011;70329;45.524;10.194;2023-11-21T06:10:33;44.08;;;19.80;;
49758;SDS011;70329;45.524;10.194;2023-11-21T06:12:59;42.22;;;19.85;;
49758;SDS011;70329;45.524;10.194;2023-11-21T06:15:26;43.20;;;19.57;;
49758;SDS011;70329;45.524;10.194;2023-11-21T06:17:54;44.03;;;19.85;;
49758;SDS011;70329;45.524;10.194;2023-11-21T06:22:47;40.60;;;19.20;;
49758;SDS011;70329;45.524;10.194;2023-11-21T06:25:17;45.22;;;20.98;;
49758;SDS011;70329;45.524;10.194;2023-11-21T06:27:45;42.33;;;20.38;;
49758;SDS011;70329;45.524;10.194;2023-11-21T06:30:13;43.28;;;20.88;;
49758;SDS011;70329;45.524;10.194;2023-11-21T06:32:41;46.13;;;20.65;;
49758;SDS011;70329;45.524;10.194;2023-11-21T06:35:11;45.03;;;20.33;;
49758;SDS011;70329;45.524;10.194;2023-11-21T06:37:39;43.28;;;19.98;;
49758;SDS011;70329;45.524;10.194;2023-11-21T06:42:34;42.05;;;17.80;;
49758;SDS011;70329;45.524;10.194;2023-11-21T06:45:01;42.80;;;18.98;;
49758;SDS011;70329;45.524;10.194;2023-11-21T06:47:30;46.35;;;19.02;;
49758;SDS011;70329;45.524;10.194;2023-11-21T06:49:57;46.33;;;19.20;;
49758;SDS011;70329;45.524;10.194;2023-11-21T06:52:24;46.13;;;19.02;;
49758;SDS011;70329;45.524;10.194;2023-11-21T06:54:51;41.60;;;18.85;;
49758;SDS011;70329;45.524;10.194;2023-11-21T06:57:18;45.67;;;20.30;;
49758;SDS011;70329;45.524;10.194;2023-11-21T07:02:10;43.63;;;18.70;;
49758;SDS011;70329;45.524;10.194;2023-11-21T07:04:36;36.80;;;17.97;;
49758;SDS011;70329;45.524;10.194;2023-11-21T07:07:03;48.37;;;18.70;;
49758;SDS011;70329;45.524;10.194;2023-11-21T07:09:31;38.78;;;16.90;;
49758;SDS011;70329;45.524;10.194;2023-11-21T07:11:56;42.95;;;17.70;;
49758;SDS011;70329;45.524;10.194;2023-11-21T07:14:22;41.97;;;17.73;;
49758;SDS011;70329;45.524;10.194;2023-11-21T07:16:50;47.10;;;19.30;;
49758;SDS011;70329;45.524;10.194;2023-11-21T07:19:19;44.63;;;19.05;;
49758;SDS011;70329;45.524;10.194;2023-11-21T07:21:46;39.67;;;16.98;;
49758;SDS011;70329;45.524;10.194;2023-11-21T07:24:13;40.35;;;17.20;;
49758;SDS011;70329;45.524;10.194;2023-11-21T07:26:40;39.97;;;16.95;;
49758;SDS011;70329;45.524;10.194;2023-11-21T07:31:33;41.03;;;17.70;;
49758;SDS011;70329;45.524;10.194;2023-11-21T07:34:06;42.08;;;18.85;;
49758;SDS011;70329;45.524;10.194;2023-11-21T07:36:32;41.83;;;17.88;;
49758;SDS011;70329;45.524;10.194;2023-11-21T07:38:59;40.88;;;18.17;;
49758;SDS011;70329;45.524;10.194;2023-11-21T07:41:26;39.17;;;18.17;;
49758;SDS011;70329;45.524;10.194;2023-11-21T07:43:56;43.65;;;18.77;;
49758;SDS011;70329;45.524;10.194;2023-11-21T07:46:21;41.10;;;19.23;;
49758;SDS011;70329;45.524;10.194;2023-11-21T07:48:49;45.00;;;19.33;;
49758;SDS011;70329;45.524;10.194;2023-11-21T07:53:43;38.90;;;17.40;;
49758;SDS011;70329;45.524;10.194;2023-11-21T07:56:10;39.80;;;18.42;;
49758;SDS011;70329;45.524;10.194;2023-11-21T08:01:04;42.17;;;18.20;;
49758;SDS011;70329;45.524;10.194;2023-11-21T08:03:31;41.13;;;18.30;;
49758;SDS011;70329;45.524;10.194;2023-11-21T08:05:58;39.10;;;17.92;;
49758;SDS011;70329;45.524;10.194;2023-11-21T08:08:27;37.78;;;17.52;;
49758;SDS011;70329;45.524;10.194;2023-11-21T08:10:53;45.53;;;19.17;;
49758;SDS011;70329;45.524;10.194;2023-11-21T08:13:22;39.25;;;18.17;;
49758;SDS011;70329;45.524;10.194;2023-11-21T08:15:49;43.80;;;18.80;;
49758;SDS011;70329;45.524;10.194;2023-11-21T08:18:16;44.13;;;19.17;;
49758;SDS011;70329;45.524;10.194;2023-11-21T08:20:43;40.25;;;18.33;;
49758;SDS011;70329;45.524;10.194;2023-11-21T08:23:14;51.97;;;20.33;;
49758;SDS011;70329;45.524;10.194;2023-11-21T08:25:43;40.13;;;18.85;;
49758;SDS011;70329;45.524;10.194;2023-11-21T08:28:11;38.85;;;18.00;;
49758;SDS011;70329;45.524;10.194;2023-11-21T08:30:37;39.03;;;17.98;;
49758;SDS011;70329;45.524;10.194;2023-11-21T08:33:04;39.22;;;18.42;;
49758;SDS011;70329;45.524;10.194;2023-11-21T08:35:31;46.30;;;18.90;;
49758;SDS011;70329;45.524;10.194;2023-11-21T08:37:58;43.67;;;20.08;;
49758;SDS011;70329;45.524;10.194;2023-11-21T08:40:25;42.58;;;18.02;;
49758;SDS011;70329;45.524;10.194;2023-11-21T08:42:54;39.40;;;18.83;;
49758;SDS011;70329;45.524;10.194;2023-11-21T08:45:21;38.95;;;18.83;;
49758;SDS011;70329;45.524;10.194;2023-11-21T08:47:48;42.97;;;18.42;;
49758;SDS011;70329;45.524;10.194;2023-11-21T08:50:15;45.65;;;19.55;;
49758;SDS011;70329;45.524;10.194;2023-11-21T08:52:42;49.72;;;19.23;;
49758;SDS011;70329;45.524;10.194;2023-11-21T08:55:10;41.65;;;18.85;;
49758;SDS011;70329;45.524;10.194;2023-11-21T08:57:39;42.75;;;19.02;;
49758;SDS011;70329;45.524;10.194;2023-11-21T09:01:22;41.08;;;18.65;;
49758;SDS011;70329;45.524;10.194;2023-11-21T09:03:51;43.90;;;19.50;;
49758;SDS011;70329;45.524;10.194;2023-11-21T09:06:17;41.47;;;18.40;;
49758;SDS011;70329;45.524;10.194;2023-11-21T09:08:46;44.90;;;19.10;;
49758;SDS011;70329;45.524;10.194;2023-11-21T09:11:14;40.97;;;18.30;;
49758;SDS011;70329;45.524;10.194;2023-11-21T09:13:42;42.42;;;19.30;;
49758;SDS011;70329;45.524;10.194;2023-11-21T09:16:10;46.38;;;20.02;;
49758;SDS011;70329;45.524;10.194;2023-11-21T09:18:39;47.80;;;19.65;;
49758;SDS011;70329;45.524;10.194;2023-11-21T09:21:07;43.20;;;18.98;;
49758;SDS011;70329;45.524;10.194;2023-11-21T09:23:35;45.10;;;20.50;;
49758;SDS011;70329;45.524;10.194;2023-11-21T09:26:05;53.70;;;22.00;;
49758;SDS011;70329;45.524;10.194;2023-11-21T09:28:33;44.20;;;20.15;;
49758;SDS011;70329;45.524;10.194;2023-11-21T09:31:04;47.05;;;20.00;;
49758;SDS011;70329;45.524;10.194;2023-11-21T09:33:35;42.92;;;20.75;;
49758;SDS011;70329;45.524;10.194;2023-11-21T09:36:10;53.90;;;21.67;;
49758;SDS011;70329;45.524;10.194;2023-11-21T09:38:40;43.67;;;20.58;;
49758;SDS011;70329;45.524;10.194;2023-11-21T09:41:10;44.58;;;21.23;;
49758;SDS011;70329;45.524;10.194;2023-11-21T09:43:44;43.67;;;21.15;;
49758;SDS011;70329;45.524;10.194;2023-11-21T09:46:14;51.17;;;23.55;;
49758;SDS011;70329;45.524;10.194;2023-11-21T09:48:46;46.53;;;22.45;;
49758;SDS011;70329;45.524;10.194;2023-11-21T09:51:20;50.58;;;24.13;;
49758;SDS011;70329;45.524;10.194;2023-11-21T09:53:52;44.08;;;22.15;;
49758;SDS011;70329;45.524;10.194;2023-11-21T09:56:20;52.15;;;24.35;;
49758;SDS011;70329;45.524;10.194;2023-11-21T09:58:50;47.22;;;23.25;;
49758;SDS011;70329;45.524;10.194;2023-11-21T10:01:22;51.78;;;23.92;;
49758;SDS011;70329;45.524;10.194;2023-11-21T10:03:52;48.15;;;24.17;;
49758;SDS011;70329;45.524;10.194;2023-11-21T10:06:22;49.70;;;23.83;;
49758;SDS011;70329;45.524;10.194;2023-11-21T10:08:53;49.00;;;23.60;;
49758;SDS011;70329;45.524;10.194;2023-11-21T10:11:23;50.55;;;23.98;;
49758;SDS011;70329;45.524;10.194;2023-11-21T10:13:52;51.97;;;23.45;;
49758;SDS011;70329;45.524;10.194;2023-11-21T10:16:24;49.90;;;22.30;;
49758;SDS011;70329;45.524;10.194;2023-11-21T10:18:53;47.15;;;21.80;;
49758;SDS011;70329;45.524;10.194;2023-11-21T10:21:24;43.63;;;20.45;;
49758;SDS011;70329;45.524;10.194;2023-11-21T10:23:52;40.78;;;19.50;;
49758;SDS011;70329;45.524;10.194;2023-11-21T10:26:21;39.10;;;19.80;;
49758;SDS011;70329;45.524;10.194;2023-11-21T10:28:55;40.78;;;19.75;;
49758;SDS011;70329;45.524;10.194;2023-11-21T10:31:25;36.00;;;18.48;;
49758;SDS011;70329;45.524;10.194;2023-11-21T10:33:55;38.58;;;18.58;;
49758;SDS011;70329;45.524;10.194;2023-11-21T10:36:29;41.97;;;19.80;;
49758;SDS011;70329;45.524;10.194;2023-11-21T10:38:57;41.60;;;19.98;;
49758;SDS011;70329;45.524;10.194;2023-11-21T10:41:25;37.65;;;18.00;;
49758;SDS011;70329;45.524;10.194;2023-11-21T10:43:53;39.45;;;19.27;;
49758;SDS011;70329;45.524;10.194;2023-11-21T10:46:22;42.50;;;19.92;;
49758;SDS011;70329;45.524;10.194;2023-11-21T10:48:52;43.03;;;20.63;;
49758;SDS011;70329;45.524;10.194;2023-11-21T10:51:22;38.35;;;19.42;;
49758;SDS011;70329;45.524;10.194;2023-11-21T10:53:52;37.60;;;19.48;;
49758;SDS011;70329;45.524;10.194;2023-11-21T10:56:23;38.08;;;19.73;;
49758;SDS011;70329;45.524;10.194;2023-11-21T10:58:52;37.42;;;19.55;;
49758;SDS011;70329;45.524;10.194;2023-11-21T11:01:20;42.33;;;19.48;;
49758;SDS011;70329;45.524;10.194;2023-11-21T11:03:52;45.67;;;20.85;;
49758;SDS011;70329;45.524;10.194;2023-11-21T11:06:21;44.00;;;19.70;;
49758;SDS011;70329;45.524;10.194;2023-11-21T11:08:58;35.90;;;18.77;;
49758;SDS011;70329;45.524;10.194;2023-11-21T11:11:30;40.25;;;19.58;;
49758;SDS011;70329;45.524;10.194;2023-11-21T11:13:58;39.47;;;20.70;;
49758;SDS011;70329;45.524;10.194;2023-11-21T11:16:26;42.63;;;20.15;;
49758;SDS011;70329;45.524;10.194;2023-11-21T11:18:55;57.15;;;22.60;;
49758;SDS011;70329;45.524;10.194;2023-11-21T11:21:25;49.90;;;25.30;;
49758;SDS011;70329;45.524;10.194;2023-11-21T11:24:16;55.58;;;25.65;;
49758;SDS011;70329;45.524;10.194;2023-11-21T11:26:58;53.60;;;26.50;;
49758;SDS011;70329;45.524;10.194;2023-11-21T11:29:35;55.35;;;27.05;;
49758;SDS011;70329;45.524;10.194;2023-11-21T11:32:13;55.13;;;26.27;;
49758;SDS011;70329;45.524;10.194;2023-11-21T11:34:50;54.33;;;26.33;;
49758;SDS011;70329;45.524;10.194;2023-11-21T11:37:27;57.35;;;25.60;;
49758;SDS011;70329;45.524;10.194;2023-11-21T11:39:57;51.78;;;24.58;;
49758;SDS011;70329;45.524;10.194;2023-11-21T11:42:27;52.38;;;24.70;;
49758;SDS011;70329;45.524;10.194;2023-11-21T11:44:55;52.85;;;24.67;;
49758;SDS011;70329;45.524;10.194;2023-11-21T11:47:24;61.72;;;27.17;;
49758;SDS011;70329;45.524;10.194;2023-11-21T11:49:58;56.10;;;25.15;;
49758;SDS011;70329;45.524;10.194;2023-11-21T11:52:34;56.23;;;24.77;;
49758;SDS011;70329;45.524;10.194;2023-11-21T11:55:05;62.85;;;27.40;;
49758;SDS011;70329;45.524;10.194;2023-11-21T11:57:36;59.00;;;26.95;;
49758;SDS011;70329;45.524;10.194;2023-11-21T12:00:09;56.90;;;26.98;;
49758;SDS011;70329;45.524;10.194;2023-11-21T12:02:46;61.45;;;28.95;;
49758;SDS011;70329;45.524;10.194;2023-11-21T12:05:18;63.58;;;28.40;;
49758;SDS011;70329;45.524;10.194;2023-11-21T12:07:48;61.70;;;28.77;;
49758;SDS011;70329;45.524;10.194;2023-11-21T12:10:21;65.75;;;30.17;;
49758;SDS011;70329;45.524;10.194;2023-11-21T12:12:51;79.38;;;32.65;;
49758;SDS011;70329;45.524;10.194;2023-11-21T12:15:21;79.97;;;31.00;;
49758;SDS011;70329;45.524;10.194;2023-11-21T12:17:49;67.35;;;29.45;;
49758;SDS011;70329;45.524;10.194;2023-11-21T12:20:19;63.50;;;29.85;;
49758;SDS011;70329;45.524;10.194;2023-11-21T12:22:47;66.53;;;28.63;;
49758;SDS011;70329;45.524;10.194;2023-11-21T12:25:16;68.55;;;29.70;;
49758;SDS011;70329;45.524;10.194;2023-11-21T12:27:50;68.75;;;29.80;;
49758;SDS011;70329;45.524;10.194;2023-11-21T12:30:19;72.65;;;31.58;;
49758;SDS011;70329;45.524;10.194;2023-11-21T12:32:48;73.22;;;32.45;;
49758;SDS011;70329;45.524;10.194;2023-11-21T12:35:18;66.53;;;30.73;;
49758;SDS011;70329;45.524;10.194;2023-11-21T12:37:47;65.30;;;31.20;;
49758;SDS011;70329;45.524;10.194;2023-11-21T12:40:16;76.82;;;33.10;;
49758;SDS011;70329;45.524;10.194;2023-11-21T12:42:45;68.20;;;31.15;;
49758;SDS011;70329;45.524;10.194;2023-11-21T12:45:22;77.53;;;31.80;;
49758;SDS011;70329;45.524;10.194;2023-11-21T12:47:54;72.47;;;31.90;;
49758;SDS011;70329;45.524;10.194;2023-11-21T12:50:26;67.05;;;30.95;;
49758;SDS011;70329;45.524;10.194;2023-11-21T12:52:58;67.57;;;31.30;;
49758;SDS011;70329;45.524;10.194;2023-11-21T12:55:30;70.43;;;30.25;;
49758;SDS011;70329;45.524;10.194;2023-11-21T12:58:02;62.67;;;29.67;;
49758;SDS011;70329;45.524;10.194;2023-11-21T13:00:37;65.07;;;30.02;;
49758;SDS011;70329;45.524;10.194;2023-11-21T13:03:09;64.72;;;29.85;;
49758;SDS011;70329;45.524;10.194;2023-11-21T13:05:39;61.78;;;28.20;;
49758;SDS011;70329;45.524;10.194;2023-11-21T13:08:11;66.50;;;29.95;;
49758;SDS011;70329;45.524;10.194;2023-11-21T13:10:40;65.03;;;29.55;;
49758;SDS011;70329;45.524;10.194;2023-11-21T13:13:13;65.30;;;30.60;;
49758;SDS011;70329;45.524;10.194;2023-11-21T13:15:48;64.22;;;30.83;;
49758;SDS011;70329;45.524;10.194;2023-11-21T13:18:17;67.05;;;30.67;;
49758;SDS011;70329;45.524;10.194;2023-11-21T13:20:49;68.20;;;30.08;;
49758;SDS011;70329;45.524;10.194;2023-11-21T13:23:19;63.13;;;31.80;;
49758;SDS011;70329;45.524;10.194;2023-11-21T13:25:47;66.57;;;30.60;;
49758;SDS011;70329;45.524;10.194;2023-11-21T13:28:16;62.50;;;29.33;;
49758;SDS011;70329;45.524;10.194;2023-11-21T13:30:48;68.88;;;32.13;;
49758;SDS011;70329;45.524;10.194;2023-11-21T13:33:19;65.60;;;31.55;;
49758;SDS011;70329;45.524;10.194;2023-11-21T13:35:53;62.72;;;31.10;;
49758;SDS011;70329;45.524;10.194;2023-11-21T13:38:23;67.28;;;31.42;;
49758;SDS011;70329;45.524;10.194;2023-11-21T13:40:56;63.50;;;29.90;;
49758;SDS011;70329;45.524;10.194;2023-11-21T13:43:24;67.32;;;30.92;;
49758;SDS011;70329;45.524;10.194;2023-11-21T13:45:56;67.95;;;30.52;;
49758;SDS011;70329;45.524;10.194;2023-11-21T13:48:28;63.60;;;30.75;;
49758;SDS011;70329;45.524;10.194;2023-11-21T13:51:06;64.72;;;30.73;;
49758;SDS011;70329;45.524;10.194;2023-11-21T13:53:42;66.25;;;31.98;;
49758;SDS011;70329;45.524;10.194;2023-11-21T13:56:11;64.05;;;29.30;;
49758;SDS011;70329;45.524;10.194;2023-11-21T13:58:41;65.63;;;30.30;;
49758;SDS011;70329;45.524;10.194;2023-11-21T14:01:15;70.15;;;31.02;;
49758;SDS011;70329;45.524;10.194;2023-11-21T14:04:08;70.68;;;31.40;;
49758;SDS011;70329;45.524;10.194;2023-11-21T14:06:45;66.63;;;31.73;;
49758;SDS011;70329;45.524;10.194;2023-11-21T14:09:15;62.72;;;30.45;;
49758;SDS011;70329;45.524;10.194;2023-11-21T14:11:51;76.68;;;32.47;;
49758;SDS011;70329;45.524;10.194;2023-11-21T14:14:22;69.57;;;32.05;;
49758;SDS011;70329;45.524;10.194;2023-11-21T14:16:53;72.05;;;32.47;;
49758;SDS011;70329;45.524;10.194;2023-11-21T14:19:22;70.50;;;31.77;;
49758;SDS011;70329;45.524;10.194;2023-11-21T14:21:53;65.95;;;29.70;;
49758;SDS011;70329;45.524;10.194;2023-11-21T14:24:21;66.55;;;30.45;;
49758;SDS011;70329;45.524;10.194;2023-11-21T14:26:50;71.72;;;31.02;;
49758;SDS011;70329;45.524;10.194;2023-11-21T14:29:17;66.60;;;30.20;;
49758;SDS011;70329;45.524;10.194;2023-11-21T14:31:46;69.32;;;31.38;;
49758;SDS011;70329;45.524;10.194;2023-11-21T14:34:16;72.40;;;30.45;;
49758;SDS011;70329;45.524;10.194;2023-11-21T14:36:44;62.35;;;30.15;;
49758;SDS011;70329;45.524;10.194;2023-11-21T14:39:13;67.78;;;32.13;;
49758;SDS011;70329;45.524;10.194;2023-11-21T14:41:49;66.10;;;29.67;;
49758;SDS011;70329;45.524;10.194;2023-11-21T14:44:17;56.92;;;27.52;;
49758;SDS011;70329;45.524;10.194;2023-11-21T14:46:45;60.50;;;28.13;;
49758;SDS011;70329;45.524;10.194;2023-11-21T14:49:21;64.05;;;29.70;;
49758;SDS011;70329;45.524;10.194;2023-11-21T14:51:53;55.92;;;27.55;;
49758;SDS011;70329;45.524;10.194;2023-11-21T14:54:27;56.75;;;27.13;;
49758;SDS011;70329;45.524;10.194;2023-11-21T14:57:06;62.10;;;28.05;;
49758;SDS011;70329;45.524;10.194;2023-11-21T14:59:36;54.35;;;26.38;;
49758;SDS011;70329;45.524;10.194;2023-11-21T15:02:04;54.03;;;25.75;;
49758;SDS011;70329;45.524;10.194;2023-11-21T15:04:43;60.38;;;26.15;;
49758;SDS011;70329;45.524;10.194;2023-11-21T15:07:11;54.92;;;24.67;;
49758;SDS011;70329;45.524;10.194;2023-11-21T15:09:37;57.13;;;27.13;;
49758;SDS011;70329;45.524;10.194;2023-11-21T15:12:09;52.70;;;25.42;;
49758;SDS011;70329;45.524;10.194;2023-11-21T15:14:41;53.95;;;26.17;;